createdAt,value
2024-01-16T00:00:29.946Z,21.20
2024-01-16T00:01:32.204Z,27.73
2024-01-16T00:02:34.772Z,25.50
2024-01-16T00:03:39.042Z,24.10
2024-01-16T00:04:42.416Z,23.80
2024-01-16T00:05:44.755Z,25.20
2024-01-16T00:06:48.566Z,24.90
2024-01-16T00:07:51.689Z,26.50
2024-01-16T00:08:54.022Z,26.82
2024-01-16T00:09:56.715Z,25.90
2024-01-16T00:11:00.129Z,25.73
2024-01-16T00:12:04.469Z,26.80
2024-01-16T00:13:07.137Z,27.00
2024-01-16T00:14:10.342Z,24.00
2024-01-16T00:15:12.934Z,26.70
2024-01-16T00:16:17.541Z,26.90
2024-01-16T00:17:21.587Z,25.60
2024-01-16T00:18:24.058Z,23.50
2024-01-16T00:19:26.677Z,26.60
2024-01-16T00:20:29.297Z,24.10
2024-01-16T00:21:31.497Z,25.30
2024-01-16T00:22:33.910Z,22.60
2024-01-16T00:23:36.328Z,24.70
2024-01-16T00:24:39.244Z,20.70
2024-01-16T00:25:42.182Z,25.70
2024-01-16T00:26:45.143Z,24.60
2024-01-16T00:27:48.576Z,25.00
2024-01-16T00:28:51.025Z,23.50
2024-01-16T00:29:53.486Z,24.40
2024-01-16T00:30:55.752Z,25.60
2024-01-16T00:31:58.948Z,25.33
2024-01-16T00:33:01.843Z,23.40
2024-01-16T00:34:04.492Z,23.73
2024-01-16T00:35:07.516Z,24.20
2024-01-16T00:36:11.125Z,22.80
2024-01-16T00:37:13.810Z,24.30
2024-01-16T00:38:16.130Z,23.00
2024-01-16T00:39:18.732Z,23.30
2024-01-16T00:40:21.826Z,22.60
2024-01-16T00:41:25.546Z,23.70
2024-01-16T00:42:30.004Z,25.40
2024-01-16T00:43:32.893Z,23.10
2024-01-16T00:44:36.694Z,24.82
2024-01-16T00:45:41.136Z,23.90
2024-01-16T00:46:44.743Z,23.20
2024-01-16T00:47:47.401Z,22.10
2024-01-16T00:48:49.933Z,23.30
2024-01-16T00:49:52.198Z,23.20
2024-01-16T00:50:55.364Z,25.70
2024-01-16T00:51:57.848Z,23.20
2024-01-16T00:53:00.357Z,23.20
2024-01-16T00:54:03.203Z,22.70
2024-01-16T00:55:06.219Z,23.27
2024-01-16T00:56:09.704Z,23.20
2024-01-16T00:57:12.816Z,23.00
2024-01-16T00:58:15.780Z,23.80
2024-01-16T00:59:18.103Z,22.50
2024-01-16T01:00:20.827Z,22.00
2024-01-16T01:01:24.168Z,20.50
2024-01-16T01:02:28.460Z,6.20
2024-01-16T01:03:31.188Z,22.50
2024-01-16T01:04:35.026Z,22.40
2024-01-16T01:05:37.462Z,20.90
2024-01-16T01:06:40.256Z,22.70
2024-01-16T01:07:42.482Z,22.30
2024-01-16T01:08:45.056Z,20.33
2024-01-16T01:09:47.169Z,24.00
2024-01-16T01:10:49.733Z,19.80
2024-01-16T01:11:52.182Z,24.40
2024-01-16T01:12:54.824Z,23.90
2024-01-16T01:13:57.743Z,25.00
2024-01-16T01:15:00.119Z,24.18
2024-01-16T01:16:02.676Z,23.70
2024-01-16T01:17:06.253Z,22.40
2024-01-16T01:18:09.034Z,21.80
2024-01-16T01:19:11.625Z,22.80
2024-01-16T01:20:15.448Z,18.80
2024-01-16T01:21:18.249Z,23.20
2024-01-16T01:22:20.767Z,22.64
2024-01-16T01:23:24.122Z,22.30
2024-01-16T01:24:26.530Z,21.90
2024-01-16T01:25:28.692Z,22.00
2024-01-16T01:26:31.730Z,20.70
2024-01-16T01:27:35.205Z,21.50
2024-01-16T01:28:39.356Z,21.60
2024-01-16T01:29:42.809Z,20.70
2024-01-16T01:30:46.394Z,21.90
2024-01-16T01:31:49.039Z,20.80
2024-01-16T01:32:52.155Z,22.30
2024-01-16T01:33:54.747Z,18.82
2024-01-16T01:34:57.042Z,22.90
2024-01-16T01:36:01.494Z,23.30
2024-01-16T01:37:04.128Z,20.80
2024-01-16T01:38:08.114Z,21.90
2024-01-16T01:39:11.595Z,20.90
2024-01-16T01:40:18.255Z,21.60
2024-01-16T01:41:20.373Z,19.00
2024-01-16T01:42:22.570Z,23.80
2024-01-16T01:43:26.109Z,21.00
2024-01-16T01:44:28.589Z,21.70
2024-01-16T01:45:31.246Z,22.70
2024-01-16T01:46:35.582Z,21.20
2024-01-16T01:47:39.946Z,23.10
2024-01-16T01:48:43.904Z,16.40
2024-01-16T01:49:46.343Z,22.30
2024-01-16T01:50:49.255Z,23.40
2024-01-16T01:51:53.030Z,21.27
2024-01-16T01:52:55.708Z,22.50
2024-01-16T01:53:59.795Z,20.20
2024-01-16T01:55:02.824Z,21.80
2024-01-16T01:57:20.574Z,24.80
2024-01-16T01:58:23.887Z,24.36
2024-01-16T01:59:26.595Z,15.70
2024-01-16T02:00:29.369Z,22.90
2024-01-16T02:01:33.642Z,25.00
2024-01-16T02:02:36.055Z,23.60
2024-01-16T02:03:46.980Z,24.30
2024-01-16T02:04:49.886Z,20.50
2024-01-16T02:05:53.213Z,21.00
2024-01-16T02:06:58.516Z,23.60
2024-01-16T02:08:01.021Z,19.90
2024-01-16T02:09:05.524Z,24.10
2024-01-16T02:10:09.758Z,20.40
2024-01-16T02:11:12.737Z,21.73
2024-01-16T02:12:16.173Z,23.73
2024-01-16T02:13:22.221Z,16.80
2024-01-16T02:14:24.698Z,24.00
2024-01-16T02:15:26.784Z,23.50
2024-01-16T02:16:32.850Z,21.90
2024-01-16T02:17:35.085Z,23.70
2024-01-16T02:18:37.647Z,21.80
2024-01-16T02:19:39.968Z,23.40
2024-01-16T02:20:43.391Z,24.20
2024-01-16T02:21:51.187Z,22.90
2024-01-16T02:22:56.736Z,24.10
2024-01-16T02:23:59.165Z,18.20
2024-01-16T02:25:02.585Z,25.70
2024-01-16T02:26:05.611Z,23.00
2024-01-16T02:27:08.183Z,23.30
2024-01-16T02:28:11.080Z,21.50
2024-01-16T02:29:13.833Z,19.60
2024-01-16T02:30:17.209Z,24.90
2024-01-16T02:31:20.124Z,23.60
2024-01-16T02:32:22.917Z,25.00
2024-01-16T02:33:25.616Z,23.80
2024-01-16T02:34:28.090Z,22.09
2024-01-16T02:35:30.256Z,19.40
2024-01-16T02:36:33.762Z,23.22
2024-01-16T02:37:36.312Z,24.20
2024-01-16T02:38:38.692Z,24.90
2024-01-16T02:39:41.097Z,22.10
2024-01-16T02:40:43.998Z,14.50
2024-01-16T02:41:46.364Z,24.10
2024-01-16T02:42:48.674Z,21.80
2024-01-16T02:43:53.037Z,23.80
2024-01-16T02:44:58.441Z,22.70
2024-01-16T02:46:02.370Z,23.00
2024-01-16T02:47:06.807Z,22.30
2024-01-16T02:48:10.558Z,23.40
2024-01-16T02:49:13.697Z,23.20
2024-01-16T02:50:16.672Z,23.40
2024-01-16T02:51:18.999Z,23.00
2024-01-16T02:52:21.220Z,21.78
2024-01-16T02:53:23.322Z,23.89
2024-01-16T02:54:25.885Z,21.80
2024-01-16T02:55:28.368Z,21.80
2024-01-16T02:56:30.797Z,23.10
2024-01-16T02:57:35.027Z,24.30
2024-01-16T02:58:37.797Z,24.30
2024-01-16T02:59:39.938Z,17.60
2024-01-16T03:00:42.513Z,25.20
2024-01-16T03:01:45.270Z,22.70
2024-01-16T03:02:49.008Z,21.60
2024-01-16T03:03:53.787Z,21.70
2024-01-16T03:04:56.506Z,23.30
2024-01-16T03:06:00.090Z,23.60
2024-01-16T03:07:03.147Z,24.10
2024-01-16T03:08:06.860Z,20.00
2024-01-16T03:09:09.495Z,22.00
2024-01-16T03:10:12.898Z,24.30
2024-01-16T03:11:16.214Z,20.00
2024-01-16T03:12:19.319Z,19.50
2024-01-16T03:13:21.747Z,21.90
2024-01-16T03:14:24.050Z,22.80
2024-01-16T03:15:26.302Z,21.44
2024-01-16T03:16:28.766Z,25.90
2024-01-16T03:17:31.869Z,24.60
2024-01-16T03:18:35.145Z,23.20
2024-01-16T03:19:37.853Z,15.20
2024-01-16T03:20:40.252Z,24.90
2024-01-16T03:21:45.379Z,16.70
2024-01-16T03:22:47.773Z,21.70
2024-01-16T03:23:50.609Z,21.50
2024-01-16T03:24:53.236Z,13.27
2024-01-16T03:25:55.493Z,24.60
2024-01-16T03:26:58.988Z,11.40
2024-01-16T03:28:01.290Z,24.50
2024-01-16T03:29:03.563Z,24.44
2024-01-16T03:30:09.029Z,25.30
2024-01-16T03:31:15.818Z,24.40
2024-01-16T03:32:20.833Z,25.00
2024-01-16T03:33:23.301Z,24.20
2024-01-16T03:34:25.486Z,25.60
2024-01-16T03:35:27.938Z,24.60
2024-01-16T03:36:30.926Z,24.40
2024-01-16T03:37:34.578Z,25.00
2024-01-16T03:38:40.720Z,21.80
2024-01-16T03:39:44.860Z,24.90
2024-01-16T03:40:48.735Z,23.40
2024-01-16T03:41:51.270Z,25.50
2024-01-16T03:42:53.783Z,24.70
2024-01-16T03:43:57.263Z,24.80
2024-01-16T03:44:59.472Z,21.00
2024-01-16T03:46:02.057Z,25.22
2024-01-16T03:47:05.124Z,21.50
2024-01-16T03:48:07.724Z,24.40
2024-01-16T03:49:10.461Z,20.70
2024-01-16T03:50:13.379Z,24.50
2024-01-16T03:51:17.676Z,24.90
2024-01-16T03:52:20.483Z,23.27
2024-01-16T03:53:23.557Z,24.70
2024-01-16T03:54:26.296Z,23.40
2024-01-16T03:55:28.858Z,23.40
2024-01-16T03:56:31.733Z,22.40
2024-01-16T03:57:34.018Z,24.20
2024-01-16T03:58:36.444Z,24.70
2024-01-16T03:59:39.386Z,23.50
2024-01-16T04:00:42.217Z,24.50
2024-01-16T04:01:45.847Z,24.90
2024-01-16T04:02:49.274Z,25.30
2024-01-16T04:03:51.677Z,20.60
2024-01-16T04:04:54.490Z,23.70
2024-01-16T04:05:56.861Z,21.00
2024-01-16T04:07:00.078Z,24.70
2024-01-16T04:08:02.944Z,21.10
2024-01-16T04:09:05.979Z,25.80
2024-01-16T04:10:09.265Z,23.00
2024-01-16T04:11:14.172Z,21.70
2024-01-16T04:12:16.362Z,21.10
2024-01-16T04:13:19.700Z,18.40
2024-01-16T04:14:22.260Z,23.90
2024-01-16T04:15:24.861Z,22.10
2024-01-16T04:16:27.889Z,25.10
2024-01-16T04:17:30.270Z,23.55
2024-01-16T04:18:41.628Z,20.50
2024-01-16T04:19:44.030Z,23.90
2024-01-16T04:20:46.694Z,26.00
2024-01-16T04:21:49.013Z,25.90
2024-01-16T04:22:51.552Z,24.70
2024-01-16T04:23:54.655Z,25.00
2024-01-16T04:24:57.090Z,26.10
2024-01-16T04:25:59.647Z,21.50
2024-01-16T04:27:02.756Z,24.60
2024-01-16T04:28:05.513Z,24.40
2024-01-16T04:29:08.994Z,24.73
2024-01-16T04:30:13.944Z,22.80
2024-01-16T04:31:18.217Z,25.80
2024-01-16T04:32:20.608Z,21.20
2024-01-16T04:33:23.528Z,24.90
2024-01-16T04:34:26.143Z,25.60
2024-01-16T04:35:29.076Z,21.90
2024-01-16T04:36:31.821Z,24.50
2024-01-16T04:37:34.021Z,20.00
2024-01-16T04:38:37.185Z,26.40
2024-01-16T04:39:40.020Z,20.10
2024-01-16T04:41:54.604Z,24.90
2024-01-16T04:42:56.858Z,25.40
2024-01-16T04:43:58.888Z,14.90
2024-01-16T04:45:01.374Z,25.20
2024-01-16T04:46:04.248Z,23.10
2024-01-16T04:47:07.003Z,22.60
2024-01-16T04:48:09.265Z,26.40
2024-01-16T04:49:12.050Z,25.00
2024-01-16T04:50:14.857Z,25.20
2024-01-16T04:51:17.263Z,24.40
2024-01-16T04:52:19.616Z,23.60
2024-01-16T04:53:21.802Z,23.20
2024-01-16T04:54:24.454Z,24.60
2024-01-16T04:55:28.891Z,18.50
2024-01-16T04:56:31.777Z,25.20
2024-01-16T04:57:35.804Z,20.18
2024-01-16T04:58:38.741Z,23.70
2024-01-16T04:59:41.453Z,24.20
2024-01-16T05:00:43.965Z,22.45
2024-01-16T05:01:46.819Z,24.10
2024-01-16T05:02:50.194Z,23.30
2024-01-16T05:03:52.623Z,23.40
2024-01-16T05:04:55.050Z,24.40
2024-01-16T05:05:57.990Z,21.27
2024-01-16T05:07:02.005Z,25.10
2024-01-16T05:08:04.934Z,22.80
2024-01-16T05:09:07.278Z,26.64
2024-01-16T05:10:13.438Z,22.40
2024-01-16T05:11:15.697Z,15.60
2024-01-16T05:12:17.898Z,24.89
2024-01-16T05:13:20.118Z,23.80
2024-01-16T05:14:24.337Z,25.50
2024-01-16T05:15:26.838Z,27.10
2024-01-16T05:16:29.358Z,26.70
2024-01-16T05:17:31.879Z,26.10
2024-01-16T05:18:34.306Z,24.90
2024-01-16T05:19:37.867Z,23.90
2024-01-16T05:20:41.492Z,25.30
2024-01-16T05:21:43.730Z,27.80
2024-01-16T05:22:45.889Z,23.90
2024-01-16T05:25:02.520Z,11.80
2024-01-16T05:26:07.532Z,25.20
2024-01-16T05:27:09.988Z,27.00
2024-01-16T05:28:14.677Z,26.10
2024-01-16T05:29:19.308Z,6.80
2024-01-16T05:30:22.723Z,26.70
2024-01-16T05:31:25.088Z,25.00
2024-01-16T05:32:27.875Z,17.30
2024-01-16T05:33:30.341Z,15.91
2024-01-16T05:34:32.804Z,26.20
2024-01-16T05:35:35.105Z,24.90
2024-01-16T05:36:38.251Z,23.80
2024-01-16T05:37:40.586Z,25.30
2024-01-16T05:38:44.008Z,29.10
2024-01-16T05:39:46.924Z,22.50
2024-01-16T05:40:49.765Z,25.50
2024-01-16T05:41:52.209Z,24.90
2024-01-16T05:42:54.593Z,26.30
2024-01-16T05:43:56.849Z,26.60
2024-01-16T05:44:59.137Z,26.90
2024-01-16T05:46:01.421Z,24.50
2024-01-16T05:47:05.484Z,26.50
2024-01-16T05:48:09.046Z,27.30
2024-01-16T05:49:12.506Z,26.30
2024-01-16T05:50:19.012Z,23.20
2024-01-16T05:51:21.736Z,24.10
2024-01-16T05:52:24.568Z,26.00
2024-01-16T05:53:26.869Z,27.40
2024-01-16T05:54:29.497Z,26.40
2024-01-16T05:55:32.900Z,21.70
2024-01-16T05:56:35.626Z,26.20
2024-01-16T05:57:38.055Z,27.30
2024-01-16T05:58:40.553Z,28.40
2024-01-16T05:59:43.178Z,25.90
2024-01-16T06:00:46.684Z,23.30
2024-01-16T06:01:50.363Z,27.60
2024-01-16T06:02:52.564Z,29.40
2024-01-16T06:03:55.407Z,27.60
2024-01-16T06:04:57.713Z,27.10
2024-01-16T06:06:01.290Z,26.70
2024-01-16T06:07:07.539Z,14.30
2024-01-16T06:08:09.976Z,22.20
2024-01-16T06:09:14.124Z,25.10
2024-01-16T06:10:17.033Z,27.60
2024-01-16T06:11:21.215Z,27.50
2024-01-16T06:12:25.625Z,24.60
2024-01-16T06:13:28.380Z,29.20
2024-01-16T06:14:30.882Z,31.90
2024-01-16T06:15:34.468Z,29.20
2024-01-16T06:16:36.861Z,28.50
2024-01-16T06:17:39.736Z,29.00
2024-01-16T06:18:42.043Z,26.50
2024-01-16T06:19:44.813Z,30.20
2024-01-16T06:20:48.664Z,30.30
2024-01-16T06:21:51.129Z,26.00
2024-01-16T06:22:53.642Z,28.30
2024-01-16T06:23:56.482Z,27.40
2024-01-16T06:24:59.835Z,24.40
2024-01-16T06:26:02.860Z,28.00
2024-01-16T06:27:06.964Z,27.36
2024-01-16T06:28:10.267Z,27.00
2024-01-16T06:29:21.467Z,28.18
2024-01-16T06:30:17.117Z,27.90
2024-01-16T06:31:20.012Z,27.20
2024-01-16T06:32:22.316Z,23.10
2024-01-16T06:33:24.672Z,25.60
2024-01-16T06:34:29.454Z,24.90
2024-01-16T06:35:31.840Z,26.10
2024-01-16T06:36:34.180Z,25.40
2024-01-16T06:37:37.591Z,24.70
2024-01-16T06:38:41.225Z,21.30
2024-01-16T06:39:44.258Z,20.40
2024-01-16T06:40:46.956Z,26.00
2024-01-16T06:41:49.366Z,27.80
2024-01-16T06:42:52.106Z,27.70
2024-01-16T06:43:54.772Z,26.60
2024-01-16T06:44:57.698Z,22.10
2024-01-16T06:46:00.540Z,19.10
2024-01-16T06:47:02.861Z,24.80
2024-01-16T06:48:07.975Z,26.80
2024-01-16T06:49:10.643Z,29.40
2024-01-16T06:50:13.344Z,23.90
2024-01-16T06:51:16.581Z,32.80
2024-01-16T06:52:20.665Z,32.30
2024-01-16T06:53:24.403Z,31.00
2024-01-16T06:54:27.330Z,31.80
2024-01-16T06:55:29.651Z,33.10
2024-01-16T06:56:32.796Z,31.40
2024-01-16T06:57:35.085Z,35.09
2024-01-16T06:58:37.188Z,33.56
2024-01-16T06:59:41.089Z,32.30
2024-01-16T07:00:43.765Z,32.20
2024-01-16T07:01:46.355Z,27.70
2024-01-16T07:02:49.730Z,32.90
2024-01-16T07:03:53.053Z,32.20
2024-01-16T07:04:56.485Z,34.64
2024-01-16T07:05:59.600Z,29.80
2024-01-16T07:07:03.172Z,31.60
2024-01-16T07:08:05.617Z,28.30
2024-01-16T07:09:09.730Z,30.30
2024-01-16T07:10:17.712Z,33.20
2024-01-16T07:11:23.447Z,32.50
2024-01-16T07:12:26.728Z,31.80
2024-01-16T07:13:28.814Z,20.91
2024-01-16T07:14:33.411Z,31.50
2024-01-16T07:15:35.955Z,29.50
2024-01-16T07:16:38.722Z,30.20
2024-01-16T07:17:41.432Z,29.30
2024-01-16T07:18:46.219Z,33.60
2024-01-16T07:19:47.987Z,29.20
2024-01-16T07:20:50.368Z,30.00
2024-01-16T07:21:53.610Z,29.00
2024-01-16T07:22:56.860Z,28.30
2024-01-16T07:23:59.138Z,31.90
2024-01-16T07:25:01.614Z,27.20
2024-01-16T07:26:05.654Z,25.70
2024-01-16T07:27:08.034Z,26.90
2024-01-16T07:28:10.365Z,28.30
2024-01-16T07:29:12.651Z,26.90
2024-01-16T07:30:16.866Z,15.70
2024-01-16T07:31:20.336Z,21.50
2024-01-16T07:32:25.074Z,20.40
2024-01-16T07:33:28.497Z,24.30
2024-01-16T07:34:31.630Z,21.30
2024-01-16T07:35:34.108Z,15.20
2024-01-16T07:36:36.666Z,27.50
2024-01-16T07:37:39.024Z,26.60
2024-01-16T07:38:41.404Z,25.10
2024-01-16T07:39:44.278Z,25.20
2024-01-16T07:40:46.770Z,25.00
2024-01-16T07:41:50.505Z,24.80
2024-01-16T07:42:53.534Z,26.70
2024-01-16T07:43:56.233Z,24.91
2024-01-16T07:44:58.700Z,24.10
2024-01-16T07:46:01.903Z,21.30
2024-01-16T07:47:04.539Z,21.36
2024-01-16T07:48:07.283Z,25.90
2024-01-16T07:49:10.659Z,19.50
2024-01-16T07:50:13.128Z,19.20
2024-01-16T07:51:15.342Z,26.80
2024-01-16T07:52:18.406Z,23.80
2024-01-16T07:53:21.183Z,25.60
2024-01-16T07:54:24.634Z,29.00
2024-01-16T07:55:28.014Z,25.20
2024-01-16T07:56:30.619Z,23.70
2024-01-16T07:57:33.590Z,27.64
2024-01-16T07:58:36.243Z,26.50
2024-01-16T07:59:38.541Z,25.50
2024-01-16T08:00:44.221Z,20.40
2024-01-16T08:01:47.254Z,21.90
2024-01-16T08:02:50.906Z,15.60
2024-01-16T08:03:53.654Z,25.50
2024-01-16T08:04:55.726Z,25.40
2024-01-16T08:05:57.906Z,20.78
2024-01-16T08:07:00.586Z,25.00
2024-01-16T08:08:05.990Z,22.80
2024-01-16T08:09:09.074Z,19.40
2024-01-16T08:10:13.458Z,20.90
2024-01-16T08:11:17.677Z,26.00
2024-01-16T08:12:20.200Z,23.40
2024-01-16T08:13:22.858Z,10.30
2024-01-16T08:14:26.773Z,18.90
2024-01-16T08:15:29.263Z,21.10
2024-01-16T08:16:31.818Z,11.80
2024-01-16T08:17:34.772Z,20.20
2024-01-16T08:18:37.984Z,18.70
2024-01-16T08:19:40.568Z,26.20
2024-01-16T08:20:43.186Z,23.70
2024-01-16T08:21:45.850Z,19.60
2024-01-16T08:22:48.034Z,21.50
2024-01-16T08:23:50.597Z,23.30
2024-01-16T08:24:53.467Z,16.70
2024-01-16T08:25:58.672Z,23.00
2024-01-16T08:27:01.203Z,14.20
2024-01-16T08:28:05.478Z,20.30
2024-01-16T08:29:07.897Z,11.30
2024-01-16T08:30:12.921Z,8.40
2024-01-16T08:31:19.059Z,18.00
2024-01-16T08:32:22.200Z,21.70
2024-01-16T08:33:31.514Z,10.73
2024-01-16T08:34:29.525Z,11.80
2024-01-16T08:35:33.142Z,12.70
2024-01-16T08:36:35.989Z,10.70
2024-01-16T08:37:38.226Z,20.60
2024-01-16T08:38:42.340Z,21.40
2024-01-16T08:39:45.117Z,21.20
2024-01-16T08:40:47.643Z,19.09
2024-01-16T08:41:50.256Z,24.00
2024-01-16T08:42:56.698Z,14.09
2024-01-16T08:43:59.206Z,15.80
2024-01-16T08:45:02.804Z,16.70
2024-01-16T08:46:05.189Z,12.50
2024-01-16T08:47:08.474Z,14.30
2024-01-16T08:48:12.897Z,18.10
2024-01-16T08:49:18.803Z,12.50
2024-01-16T08:50:21.569Z,16.30
2024-01-16T08:51:24.437Z,10.10
2024-01-16T08:52:27.226Z,17.18
2024-01-16T08:53:31.310Z,17.10
2024-01-16T08:54:34.383Z,17.00
2024-01-16T08:55:36.654Z,14.10
2024-01-16T08:56:39.479Z,12.30
2024-01-16T08:57:42.371Z,13.30
2024-01-16T08:58:44.829Z,17.09
2024-01-16T08:59:48.046Z,8.90
2024-01-16T09:00:50.995Z,14.90
2024-01-16T09:01:55.556Z,15.20
2024-01-16T09:03:01.527Z,15.60
2024-01-16T09:04:03.451Z,18.00
2024-01-16T09:05:06.524Z,17.40
2024-01-16T09:06:12.192Z,13.00
2024-01-16T09:07:17.405Z,16.80
2024-01-16T09:08:20.339Z,13.40
2024-01-16T09:09:22.717Z,14.40
2024-01-16T09:10:25.770Z,13.70
2024-01-16T09:11:28.584Z,12.70
2024-01-16T09:12:31.378Z,14.82
2024-01-16T09:13:34.790Z,16.20
2024-01-16T09:14:37.840Z,14.00
2024-01-16T09:15:41.457Z,12.50
2024-01-16T09:16:44.298Z,10.90
2024-01-16T09:17:47.247Z,14.00
2024-01-16T09:18:51.025Z,13.45
2024-01-16T09:19:53.425Z,12.70
2024-01-16T09:20:56.135Z,13.00
2024-01-16T09:21:58.699Z,15.30
2024-01-16T09:23:01.157Z,18.50
2024-01-16T09:24:04.067Z,12.40
2024-01-16T09:25:06.942Z,16.60
2024-01-16T09:26:12.158Z,12.80
2024-01-16T09:27:16.395Z,8.20
2024-01-16T09:28:19.445Z,12.00
2024-01-16T09:29:23.805Z,9.60
2024-01-16T09:30:27.104Z,8.50
2024-01-16T09:31:29.954Z,13.40
2024-01-16T09:32:32.813Z,9.91
2024-01-16T09:33:36.030Z,11.45
2024-01-16T09:34:38.763Z,11.90
2024-01-16T09:35:41.704Z,14.40
2024-01-16T09:36:44.488Z,11.09
2024-01-16T09:37:46.764Z,13.80
2024-01-16T09:38:49.247Z,7.30
2024-01-16T09:39:51.724Z,16.70
2024-01-16T09:40:56.080Z,8.10
2024-01-16T09:42:03.027Z,13.80
2024-01-16T09:43:05.892Z,9.80
2024-01-16T09:44:08.222Z,10.00
2024-01-16T09:45:11.580Z,7.00
2024-01-16T09:46:17.495Z,13.20
2024-01-16T09:47:20.336Z,11.50
2024-01-16T09:48:23.247Z,12.10
2024-01-16T09:49:25.966Z,10.27
2024-01-16T09:50:30.034Z,10.50
2024-01-16T09:51:32.315Z,13.30
2024-01-16T09:52:35.013Z,17.50
2024-01-16T09:53:37.292Z,11.80
2024-01-16T09:54:39.524Z,14.70
2024-01-16T09:55:41.652Z,11.33
2024-01-16T09:56:46.292Z,12.00
2024-01-16T09:57:52.300Z,7.80
2024-01-16T09:59:02.254Z,10.30
2024-01-16T10:00:06.409Z,11.10
2024-01-16T10:01:09.763Z,11.50
2024-01-16T10:02:14.465Z,13.36
2024-01-16T10:03:18.923Z,6.40
2024-01-16T10:04:22.390Z,10.80
2024-01-16T10:05:25.031Z,9.20
2024-01-16T10:06:30.578Z,21.70
2024-01-16T10:07:34.200Z,13.90
2024-01-16T10:08:38.570Z,8.50
2024-01-16T10:09:42.820Z,6.50
2024-01-16T10:10:49.053Z,3.90
2024-01-16T10:11:51.541Z,7.60
2024-01-16T10:12:54.309Z,7.70
2024-01-16T10:13:58.893Z,11.20
2024-01-16T10:15:01.708Z,5.70
2024-01-16T10:16:04.520Z,7.18
2024-01-16T10:17:08.782Z,7.20
2024-01-16T10:18:31.128Z,9.00
2024-01-16T10:19:43.191Z,2.60
2024-01-16T10:20:40.317Z,10.50
2024-01-16T10:21:42.749Z,9.40
2024-01-16T10:22:53.579Z,13.40
2024-01-16T10:23:56.141Z,3.40
2024-01-16T10:25:10.230Z,7.00
2024-01-16T10:26:14.729Z,6.60
2024-01-16T10:27:18.665Z,6.30
2024-01-16T10:28:24.775Z,9.50
2024-01-16T10:29:32.519Z,6.80
2024-01-16T10:30:32.101Z,5.60
2024-01-16T10:31:34.594Z,6.30
2024-01-16T10:32:39.670Z,10.50
2024-01-16T10:33:42.902Z,6.70
2024-01-16T10:34:46.411Z,7.90
2024-01-16T10:35:48.808Z,6.10
2024-01-16T10:36:53.534Z,6.50
2024-01-16T10:37:56.968Z,4.10
2024-01-16T10:39:03.125Z,4.50
2024-01-16T10:40:09.646Z,8.20
2024-01-16T10:41:18.412Z,7.60
2024-01-16T10:42:21.022Z,4.80
2024-01-16T10:43:24.696Z,8.27
2024-01-16T10:44:28.093Z,5.30
2024-01-16T10:45:33.549Z,8.60
2024-01-16T10:46:40.457Z,6.40
2024-01-16T10:47:43.165Z,4.10
2024-01-16T10:48:49.082Z,6.00
2024-01-16T10:49:52.036Z,6.00
2024-01-16T10:50:54.633Z,3.55
2024-01-16T10:51:57.287Z,5.20
2024-01-16T10:53:10.301Z,8.20
2024-01-16T10:54:17.582Z,4.80
2024-01-16T10:55:22.982Z,4.70
2024-01-16T10:56:28.429Z,8.10
2024-01-16T10:57:33.676Z,7.70
2024-01-16T10:58:39.310Z,7.80
2024-01-16T10:59:51.839Z,1.90
2024-01-16T11:00:57.769Z,3.60
2024-01-16T11:02:04.512Z,5.20
2024-01-16T11:03:13.846Z,6.00
2024-01-16T11:04:17.268Z,5.20
2024-01-16T11:05:22.440Z,5.00
2024-01-16T11:06:27.730Z,6.10
2024-01-16T11:07:31.177Z,5.60
2024-01-16T11:08:36.615Z,6.00
2024-01-16T11:09:41.375Z,3.10
2024-01-16T11:10:45.588Z,1.30
2024-01-16T11:11:48.102Z,2.80
2024-01-16T11:12:52.128Z,5.60
2024-01-16T11:13:55.775Z,7.80
2024-01-16T11:15:01.893Z,6.50
2024-01-16T11:16:05.874Z,8.90
2024-01-16T11:17:11.138Z,12.10
2024-01-16T11:18:16.486Z,4.00
2024-01-16T11:19:37.732Z,0.60
2024-01-16T11:20:47.805Z,2.80
2024-01-16T11:21:34.993Z,4.00
2024-01-16T11:22:44.411Z,7.40
2024-01-16T11:23:49.682Z,3.70
2024-01-16T11:25:13.447Z,3.20
2024-01-16T11:26:31.710Z,0.20
2024-01-16T11:27:35.082Z,0.20
2024-01-16T11:28:37.191Z,3.40
2024-01-16T11:29:40.103Z,6.70
2024-01-16T11:30:45.975Z,5.70
2024-01-16T11:31:48.749Z,6.70
2024-01-16T11:32:51.520Z,0.40
2024-01-16T11:33:54.597Z,5.09
2024-01-16T11:34:56.895Z,3.10
2024-01-16T11:36:00.553Z,4.20
2024-01-16T11:37:06.682Z,3.00
2024-01-16T11:38:18.465Z,4.60
2024-01-16T11:39:22.892Z,5.00
2024-01-16T11:40:26.892Z,7.50
2024-01-16T11:41:56.005Z,7.20
2024-01-16T11:42:59.935Z,4.10
2024-01-16T11:44:02.327Z,8.60
2024-01-16T11:45:08.104Z,1.20
2024-01-16T11:46:12.266Z,4.70
2024-01-16T11:47:19.519Z,5.20
2024-01-16T11:48:22.261Z,6.00
2024-01-16T11:49:25.056Z,6.30
2024-01-16T11:50:31.051Z,1.27
2024-01-16T11:51:34.178Z,1.60
2024-01-16T11:52:44.170Z,5.18
2024-01-16T11:53:47.662Z,4.10
2024-01-16T11:54:50.642Z,3.00
2024-01-16T11:56:11.962Z,3.09
2024-01-16T11:57:27.627Z,5.20
2024-01-16T11:58:53.407Z,2.60
2024-01-16T12:00:02.407Z,1.60
2024-01-16T12:01:06.979Z,5.40
2024-01-16T12:02:21.791Z,6.80
2024-01-16T12:03:32.009Z,5.80
2024-01-16T12:04:29.394Z,1.60
2024-01-16T12:05:32.667Z,4.30
2024-01-16T12:06:38.042Z,6.30
2024-01-16T12:07:45.923Z,4.40
2024-01-16T12:08:48.390Z,7.60
2024-01-16T12:09:51.138Z,1.80
2024-01-16T12:10:53.568Z,4.00
2024-01-16T12:12:01.730Z,5.60
2024-01-16T12:13:05.708Z,1.20
2024-01-16T12:14:08.229Z,8.30
2024-01-16T12:15:21.822Z,6.40
2024-01-16T12:16:24.536Z,5.20
2024-01-16T12:17:26.811Z,0.80
2024-01-16T12:18:38.511Z,4.60
2024-01-16T12:19:34.280Z,4.00
2024-01-16T12:20:38.941Z,4.00
2024-01-16T12:21:45.954Z,1.00
2024-01-16T12:22:57.858Z,4.10
2024-01-16T12:24:08.726Z,3.00
2024-01-16T12:25:06.806Z,4.40
2024-01-16T12:26:09.518Z,1.80
2024-01-16T12:27:12.273Z,5.40
2024-01-16T12:28:24.399Z,2.00
2024-01-16T12:29:20.940Z,1.20
2024-01-16T12:30:26.648Z,4.00
2024-01-16T12:31:30.690Z,1.30
2024-01-16T12:32:34.114Z,5.00
2024-01-16T12:33:37.523Z,5.50
2024-01-16T12:34:51.167Z,5.00
2024-01-16T12:36:03.234Z,9.90
2024-01-16T12:37:08.364Z,6.80
2024-01-16T12:38:13.894Z,4.20
2024-01-16T12:39:19.675Z,8.30
2024-01-16T12:40:23.047Z,4.70
2024-01-16T12:41:39.007Z,1.50
2024-01-16T12:42:35.357Z,5.50
2024-01-16T12:43:38.609Z,5.40
2024-01-16T12:44:41.711Z,4.10
2024-01-16T12:45:45.936Z,5.50
2024-01-16T12:47:01.032Z,4.40
2024-01-16T12:48:05.574Z,3.40
2024-01-16T12:49:11.188Z,4.10
2024-01-16T12:50:23.376Z,6.30
2024-01-16T12:51:25.833Z,1.70
2024-01-16T12:52:30.503Z,5.50
2024-01-16T12:53:34.395Z,1.10
2024-01-16T12:54:36.964Z,0.50
2024-01-16T12:55:40.913Z,5.80
2024-01-16T12:56:44.035Z,1.70
2024-01-16T12:57:46.612Z,2.64
2024-01-16T12:58:49.009Z,2.20
2024-01-16T12:59:53.045Z,4.80
2024-01-16T13:00:59.443Z,3.20
2024-01-16T13:02:02.469Z,4.00
2024-01-16T13:03:05.065Z,2.80
2024-01-16T13:04:10.062Z,4.20
2024-01-16T13:05:16.340Z,6.40
2024-01-16T13:06:24.042Z,5.60
2024-01-16T13:07:27.711Z,5.70
2024-01-16T13:08:32.377Z,5.70
2024-01-16T13:09:35.318Z,5.60
2024-01-16T13:10:39.055Z,6.27
2024-01-16T13:11:53.496Z,6.40
2024-01-16T13:13:18.916Z,5.30
2024-01-16T13:14:23.215Z,6.10
2024-01-16T13:15:25.729Z,6.00
2024-01-16T13:16:32.302Z,2.20
2024-01-16T13:17:35.842Z,9.70
2024-01-16T13:18:38.358Z,9.60
2024-01-16T13:19:44.557Z,8.80
2024-01-16T13:20:48.046Z,11.00
2024-01-16T13:21:52.749Z,6.90
2024-01-16T13:22:55.381Z,8.00
2024-01-16T13:23:57.915Z,8.20
2024-01-16T13:25:08.688Z,5.30
2024-01-16T13:26:08.260Z,4.10
2024-01-16T13:27:12.627Z,7.50
2024-01-16T13:28:24.015Z,4.30
2024-01-16T13:29:26.658Z,2.20
2024-01-16T13:30:40.278Z,4.30
2024-01-16T13:31:34.353Z,6.10
2024-01-16T13:32:38.863Z,5.90
2024-01-16T13:33:42.801Z,3.30
2024-01-16T13:34:47.225Z,7.40
2024-01-16T13:35:50.334Z,7.00
2024-01-16T13:37:09.011Z,9.40
2024-01-16T13:38:00.069Z,8.20
2024-01-16T13:39:02.518Z,7.20
2024-01-16T13:40:11.194Z,5.00
2024-01-16T13:41:13.977Z,11.10
2024-01-16T13:42:18.792Z,14.50
2024-01-16T13:43:21.834Z,8.40
2024-01-16T13:44:25.231Z,2.80
2024-01-16T13:45:29.171Z,5.40
2024-01-16T13:46:49.099Z,4.50
2024-01-16T13:47:40.806Z,6.60
2024-01-16T13:48:46.345Z,8.10
2024-01-16T13:49:48.970Z,7.80
2024-01-16T13:50:51.947Z,8.70
2024-01-16T13:51:54.727Z,5.18
2024-01-16T13:52:57.290Z,10.10